Time;durP1;ratioP1;P1;durP2;ratioP2;P2;SDS_P1;SDS_P2;PMS_P1;PMS_P2;Temp;Humidity;BMP_temperature;BMP_pressure;BME280_temperature;BME280_humidity;BME280_pressure;Samples;Min_cycle;Max_cycle;Signal;HPM_P1;HPM_P2
2023/04/20 00:00:10;;;;;;;4.38;2.40;;;;;;;9.12;100.00;92030.66;4954192;28;20053;-77
2023/04/20 00:02:39;;;;;;;5.05;2.58;;;;;;;9.11;100.00;92023.88;4970561;28;20090;-77
2023/04/20 00:05:09;;;;;;;4.63;2.65;;;;;;;9.11;100.00;92018.66;4972047;28;20062;-77
2023/04/20 00:07:35;;;;;;;5.85;2.75;;;;;;;9.08;100.00;92019.25;4973275;28;20463;-77
2023/04/20 00:10:02;;;;;;;3.75;2.55;;;;;;;9.10;100.00;92009.28;4974350;28;20560;-77
2023/04/20 00:12:28;;;;;;;4.57;2.60;;;;;;;9.13;100.00;92013.94;4973294;28;20089;-77
2023/04/20 00:14:54;;;;;;;4.20;2.60;;;;;;;9.10;100.00;92007.44;4957822;28;20058;-77
2023/04/20 00:17:20;;;;;;;4.22;2.65;;;;;;;9.11;100.00;92001.16;4974375;28;20062;-77
2023/04/20 00:19:46;;;;;;;4.63;2.70;;;;;;;9.11;100.00;92000.38;4973208;28;20411;-77
2023/04/20 00:22:12;;;;;;;5.35;2.35;;;;;;;9.08;100.00;91996.50;4973917;28;20549;-77
2023/04/20 00:24:38;;;;;;;4.25;2.38;;;;;;;9.08;100.00;91996.50;4972361;28;20034;-78
2023/04/20 00:27:03;;;;;;;2.80;1.80;;;;;;;9.05;100.00;91996.31;4973668;28;20085;-77
2023/04/20 00:29:29;;;;;;;5.75;2.30;;;;;;;9.01;100.00;91995.34;4972081;28;20039;-77
2023/04/20 00:31:56;;;;;;;2.97;1.83;;;;;;;9.01;100.00;92006.56;4972779;28;20130;-77
2023/04/20 00:34:21;;;;;;;3.13;1.77;;;;;;;8.98;100.00;91995.91;4973185;28;20077;-77
2023/04/20 00:36:47;;;;;;;2.70;1.80;;;;;;;8.91;100.00;91993.69;4972581;28;20500;-77
2023/04/20 00:39:13;;;;;;;2.97;1.80;;;;;;;8.88;100.00;91986.44;4967809;28;20038;-77
2023/04/20 00:41:38;;;;;;;2.83;1.70;;;;;;;8.86;100.00;91988.56;4970714;28;20027;-77
2023/04/20 00:44:06;;;;;;;3.17;1.80;;;;;;;8.82;100.00;91985.72;4969994;28;20046;-77
2023/04/20 00:46:33;;;;;;;3.47;1.80;;;;;;;8.81;100.00;91986.03;4952284;28;20382;-77
2023/04/20 00:48:59;;;;;;;3.20;1.70;;;;;;;8.77;100.00;91985.81;4968651;28;20033;-77
2023/04/20 00:51:26;;;;;;;2.90;1.70;;;;;;;8.71;100.00;91984.34;4970541;28;20035;-77
2023/04/20 00:53:52;;;;;;;3.50;2.00;;;;;;;8.69;100.00;91976.03;4955145;28;20069;-77
2023/04/20 00:56:18;;;;;;;2.35;1.48;;;;;;;8.69;100.00;91976.03;4971432;28;20130;-77
2023/04/20 00:58:45;;;;;;;4.65;1.80;;;;;;;8.68;100.00;91972.66;4974513;28;20047;-78
2023/04/20 01:01:12;;;;;;;3.08;1.75;;;;;;;8.70;100.00;91974.97;4972625;28;20045;-78
2023/04/20 01:03:38;;;;;;;4.10;1.60;;;;;;;8.67;100.00;91968.50;4970948;28;20035;-78
2023/04/20 01:06:05;;;;;;;2.90;1.70;;;;;;;8.65;100.00;91954.97;4972629;28;20137;-78
2023/04/20 01:08:30;;;;;;;2.72;1.75;;;;;;;8.66;100.00;91959.13;4972140;28;20039;-77
2023/04/20 01:10:56;;;;;;;2.75;1.90;;;;;;;8.63;100.00;91964.91;4972219;28;20038;-77
2023/04/20 01:13:22;;;;;;;3.95;1.92;;;;;;;8.59;100.00;91955.34;4972284;28;20105;-77
2023/04/20 01:15:48;;;;;;;3.03;1.90;;;;;;;8.61;100.00;91951.38;4956499;28;20477;-77
2023/04/20 01:18:14;;;;;;;2.85;1.73;;;;;;;8.60;100.00;91944.63;4971566;28;20038;-77
2023/04/20 01:20:40;;;;;;;2.70;1.80;;;;;;;8.61;100.00;91946.16;4988747;28;20042;-77
2023/04/20 01:23:06;;;;;;;2.95;1.80;;;;;;;8.58;100.00;91949.34;4971931;28;20061;-77
2023/04/20 01:25:31;;;;;;;3.40;1.98;;;;;;;8.58;100.00;91945.94;4972325;28;20066;-77
2023/04/20 01:27:57;;;;;;;4.40;2.00;;;;;;;8.54;100.00;91943.16;4972246;28;20035;-77
2023/04/20 01:30:23;;;;;;;3.08;1.80;;;;;;;8.52;100.00;91937.44;5008097;28;20050;-77
2023/04/20 01:32:48;;;;;;;4.72;1.95;;;;;;;8.48;100.00;91934.63;4994239;28;20096;-77
2023/04/20 01:35:15;;;;;;;3.67;1.77;;;;;;;8.44;100.00;91944.06;5011162;28;20038;-77
2023/04/20 01:37:41;;;;;;;3.38;1.92;;;;;;;8.37;100.00;91935.03;5011429;28;20373;-77
2023/04/20 01:40:11;;;;;;;2.55;1.75;;;;;;;8.33;100.00;91932.22;5010472;28;20034;-77
2023/04/20 01:42:37;;;;;;;2.72;1.80;;;;;;;8.30;100.00;91932.81;5011054;28;20491;-77
2023/04/20 01:45:06;;;;;;;4.20;1.90;;;;;;;8.27;100.00;91930.78;5011342;28;20029;-77
2023/04/20 01:47:34;;;;;;;3.92;2.30;;;;;;;8.24;100.00;91931.31;5011414;28;20037;-77
2023/04/20 01:50:00;;;;;;;3.40;2.20;;;;;;;8.21;100.00;91926.69;4995839;28;20093;-77
2023/04/20 01:52:25;;;;;;;3.35;2.10;;;;;;;8.22;100.00;91930.84;4991463;28;20432;-77
2023/04/20 01:54:51;;;;;;;3.38;1.85;;;;;;;8.20;100.00;91920.72;4998989;28;20038;-77
2023/04/20 01:57:16;;;;;;;3.20;1.92;;;;;;;8.20;100.00;91923.31;4994192;28;20062;-77
2023/04/20 01:59:42;;;;;;;4.40;2.35;;;;;;;8.14;100.00;91916.63;5002896;28;20038;-77
2023/04/20 02:02:08;;;;;;;3.92;2.03;;;;;;;8.13;100.00;91921.06;5009685;28;20042;-77
2023/04/20 02:04:33;;;;;;;3.30;2.00;;;;;;;8.09;100.00;91916.72;5010336;28;20045;-77
2023/04/20 02:06:59;;;;;;;3.40;2.25;;;;;;;8.07;100.00;91922.19;5011365;28;20034;-76
2023/04/20 02:09:24;;;;;;;3.70;2.30;;;;;;;8.07;100.00;91924.81;5010759;28;20034;-78
2023/04/20 02:11:50;;;;;;;5.35;2.35;;;;;;;8.08;100.00;91917.75;4992790;28;20492;-78
2023/04/20 02:14:16;;;;;;;4.00;2.38;;;;;;;8.13;100.00;91915.09;5005650;28;20057;-78
2023/04/20 02:16:41;;;;;;;5.85;2.00;;;;;;;8.19;100.00;91919.16;4978560;28;20506;-78
2023/04/20 02:19:07;;;;;;;4.18;2.45;;;;;;;8.18;100.00;91916.84;5010480;28;20056;-78
2023/04/20 02:21:33;;;;;;;3.78;2.30;;;;;;;8.17;100.00;91915.28;5009649;28;20396;-78
2023/04/20 02:24:00;;;;;;;3.13;2.10;;;;;;;8.16;100.00;91916.34;5010863;28;20452;-78
2023/04/20 02:26:26;;;;;;;4.43;2.50;;;;;;;8.11;100.00;91912.00;5010812;28;20037;-78
2023/04/20 02:28:51;;;;;;;3.80;2.38;;;;;;;8.18;100.00;91911.63;5012099;28;20527;-77
2023/04/20 02:31:17;;;;;;;3.28;2.00;;;;;;;8.22;100.00;91917.78;5014049;28;20591;-78
2023/04/20 02:33:43;;;;;;;3.65;2.40;;;;;;;8.19;100.00;91908.72;5015143;28;20057;-78
2023/04/20 02:36:09;;;;;;;3.65;2.40;;;;;;;8.20;100.00;91906.91;5014104;28;20045;-78
2023/04/20 02:38:35;;;;;;;4.18;2.17;;;;;;;8.23;100.00;91916.75;5013975;28;20037;-78
2023/04/20 02:41:00;;;;;;;3.65;2.50;;;;;;;8.29;100.00;91910.41;5014964;28;20120;-78
2023/04/20 02:43:27;;;;;;;3.45;2.28;;;;;;;8.26;100.00;91910.97;5011672;28;20132;-78
2023/04/20 02:45:53;;;;;;;4.82;2.47;;;;;;;8.21;100.00;91911.03;5009767;28;20543;-78
2023/04/20 02:48:21;;;;;;;4.32;2.40;;;;;;;8.21;100.00;91906.59;5014000;28;20029;-78
2023/04/20 02:50:47;;;;;;;5.50;3.33;;;;;;;8.14;100.00;91906.19;5014851;28;20293;-78
2023/04/20 02:53:18;;;;;;;5.57;3.90;;;;;;;8.16;100.00;91908.53;4983066;28;20042;-78
2023/04/20 02:55:49;;;;;;;5.90;4.13;;;;;;;8.13;100.00;91905.44;5013867;28;20042;-78
2023/04/20 02:58:23;;;;;;;6.68;4.32;;;;;;;8.13;100.00;91905.44;5014170;28;20495;-78
2023/04/20 03:01:22;;;;;;;5.00;3.00;;;;;;;8.08;100.00;91897.69;4990109;28;20093;-77
2023/04/20 03:03:51;;;;;;;4.85;3.28;;;;;;;7.87;100.00;91904.25;5011726;28;20042;-77
2023/04/20 03:06:17;;;;;;;5.70;3.67;;;;;;;7.81;100.00;91898.31;4997807;28;20336;-77
2023/04/20 03:08:49;;;;;;;5.63;4.00;;;;;;;7.83;100.00;91895.44;5013854;28;20041;-77
2023/04/20 03:11:50;;;;;;;5.50;3.80;;;;;;;7.85;100.00;91898.56;4987655;28;20300;-78
2023/04/20 03:14:35;;;;;;;6.13;3.95;;;;;;;7.87;100.00;91905.03;4961965;28;20046;-78
2023/04/20 03:17:01;;;;;;;5.93;4.10;;;;;;;7.89;100.00;91902.91;4997882;28;20069;-77
2023/04/20 03:19:27;;;;;;;5.25;3.47;;;;;;;8.02;100.00;91893.59;5013776;28;20034;-78
2023/04/20 03:21:52;;;;;;;6.28;3.90;;;;;;;8.04;100.00;91895.94;5013245;28;20034;-78
2023/04/20 03:24:18;;;;;;;5.50;4.10;;;;;;;7.99;100.00;91888.94;4979763;28;20504;-78
2023/04/20 03:26:45;;;;;;;6.93;3.92;;;;;;;8.00;100.00;91889.75;4997403;28;20492;-78
2023/04/20 03:29:16;;;;;;;6.72;3.90;;;;;;;7.96;100.00;91893.97;4997659;28;20046;-77
2023/04/20 03:31:42;;;;;;;9.07;4.28;;;;;;;7.95;100.00;91895.81;5014487;28;20053;-78
2023/04/20 03:34:09;;;;;;;293.73;12.13;;;;;;;7.98;100.00;91900.44;5013389;28;20042;-77
2023/04/20 03:36:36;;;;;;;238.30;10.90;;;;;;;7.90;100.00;91899.25;5012537;28;20393;-77
2023/04/20 03:39:03;;;;;;;276.90;11.80;;;;;;;7.99;100.00;91899.38;5012820;28;20030;-77
2023/04/20 03:41:30;;;;;;;519.05;18.40;;;;;;;7.90;100.00;91903.69;5012544;28;20053;-78
2023/04/20 03:43:56;;;;;;;209.95;9.90;;;;;;;7.77;100.00;91897.38;5003392;28;20117;-77
2023/04/20 03:46:21;;;;;;;156.05;8.02;;;;;;;7.65;100.00;91894.41;5011673;28;20167;-77
2023/04/20 03:48:47;;;;;;;30.55;5.70;;;;;;;7.63;100.00;91893.91;4996940;28;20451;-77
2023/04/20 03:51:13;;;;;;;44.38;6.35;;;;;;;7.58;100.00;91897.34;5012627;28;20044;-77
2023/04/20 03:53:39;;;;;;;289.08;12.32;;;;;;;7.61;100.00;91893.41;5012768;28;20435;-77
2023/04/20 03:56:07;;;;;;;176.43;9.75;;;;;;;7.55;100.00;91889.34;4995717;28;20040;-77
2023/04/20 03:58:32;;;;;;;20.25;6.50;;;;;;;7.56;100.00;91894.25;5031288;28;20038;-78
2023/04/20 04:01:27;;;;;;;9.25;5.75;;;;;;;7.75;100.00;91888.28;5018873;28;20131;-77
2023/04/20 04:03:52;;;;;;;10.68;6.15;;;;;;;7.67;100.00;91887.84;5028319;28;20511;-77
2023/04/20 04:06:18;;;;;;;15.55;6.80;;;;;;;7.60;100.00;91887.44;4996463;28;20037;-77
2023/04/20 04:08:44;;;;;;;255.48;12.38;;;;;;;7.53;100.00;91881.81;4996247;28;20042;-78
2023/04/20 04:11:09;;;;;;;112.55;7.93;;;;;;;7.62;100.00;91885.31;4996162;28;20045;-77
2023/04/20 04:13:35;;;;;;;267.98;12.85;;;;;;;7.58;100.00;91889.53;5011987;28;20041;-77
2023/04/20 04:16:03;;;;;;;406.73;15.23;;;;;;;7.51;100.00;91878.69;5011311;28;20103;-78
2023/04/20 04:18:31;;;;;;;41.10;5.82;;;;;;;7.72;100.00;91887.00;5012404;28;20030;-77
2023/04/20 04:20:58;;;;;;;730.00;24.08;;;;;;;7.71;100.00;91883.63;5011162;28;20121;-76
2023/04/20 04:23:23;;;;;;;134.60;9.13;;;;;;;7.71;100.00;91881.03;4993749;28;20136;-76
2023/04/20 04:26:03;;;;;;;452.88;18.35;;;;;;;7.62;100.00;91887.16;5009753;28;20566;-77
2023/04/20 04:28:31;;;;;;;508.48;18.30;;;;;;;7.50;100.00;91882.38;5010498;28;20057;-76
2023/04/20 04:31:11;;;;;;;157.23;9.02;;;;;;;7.52;100.00;91885.47;5012473;28;20044;-78
2023/04/20 04:33:37;;;;;;;35.70;7.65;;;;;;;7.56;100.00;91891.66;4979658;28;20042;-77
2023/04/20 04:36:04;;;;;;;33.50;7.85;;;;;;;7.47;100.00;91888.13;4995744;28;20080;-77
2023/04/20 04:38:32;;;;;;;9.95;7.15;;;;;;;7.49;100.00;91886.03;5011501;28;20068;-77
2023/04/20 04:40:58;;;;;;;7.75;5.22;;;;;;;7.29;100.00;91881.84;5011060;28;20029;-77
2023/04/20 04:43:24;;;;;;;10.38;7.07;;;;;;;7.27;100.00;91878.75;5010701;28;20041;-77
2023/04/20 04:46:06;;;;;;;9.02;7.05;;;;;;;7.41;100.00;91873.66;4986264;28;20042;-77
2023/04/20 04:48:34;;;;;;;6.30;4.03;;;;;;;7.55;100.00;91877.09;5004007;28;20126;-77
2023/04/20 04:51:00;;;;;;;25.15;6.78;;;;;;;7.44;100.00;91889.47;5002130;28;20051;-78
2023/04/20 04:53:26;;;;;;;16.35;6.28;;;;;;;7.29;100.00;91872.22;4993217;28;20042;-77
2023/04/20 04:55:52;;;;;;;187.40;10.13;;;;;;;7.35;100.00;91870.31;4974699;28;20037;-77
2023/04/20 04:58:18;;;;;;;380.15;17.27;;;;;;;7.29;100.00;91882.66;5007356;28;20030;-76
2023/04/20 05:00:43;;;;;;;461.58;21.85;;;;;;;7.06;100.00;91879.00;4989402;28;20470;-76
2023/04/20 05:03:09;;;;;;;113.85;11.00;;;;;;;7.01;100.00;91881.69;5005035;28;20044;-75
2023/04/20 05:05:34;;;;;;;6.45;4.82;;;;;;;6.85;100.00;91873.28;5007891;28;20049;-75
2023/04/20 05:08:00;;;;;;;5.05;3.42;;;;;;;6.87;100.00;91871.16;4990183;28;20030;-77
2023/04/20 05:10:26;;;;;;;6.05;4.85;;;;;;;6.82;100.00;91881.63;5003608;28;20407;-77
2023/04/20 05:12:51;;;;;;;4.90;3.75;;;;;;;6.78;100.00;91870.22;5009112;28;20034;-75
2023/04/20 05:15:17;;;;;;;6.10;4.25;;;;;;;6.86;100.00;91876.63;5009009;28;20040;-75
2023/04/20 05:17:43;;;;;;;7.15;4.18;;;;;;;7.01;100.00;91883.50;5007695;28;20546;-78
2023/04/20 05:20:10;;;;;;;3.33;2.55;;;;;;;7.05;100.00;91889.72;5007081;28;20037;-76
2023/04/20 05:22:36;;;;;;;6.00;4.13;;;;;;;7.05;100.00;91889.72;5006062;28;20499;-77
2023/04/20 05:25:03;;;;;;;6.50;4.18;;;;;;;7.02;100.00;91892.84;5008664;28;20060;-77
2023/04/20 05:27:29;;;;;;;3.40;2.67;;;;;;;7.11;100.00;91893.78;5008489;28;20396;-77
2023/04/20 05:29:55;;;;;;;4.03;2.90;;;;;;;7.08;100.00;91886.53;5002852;28;20512;-77
2023/04/20 05:32:20;;;;;;;4.47;3.08;;;;;;;6.86;100.00;91890.41;5007654;28;20042;-77
2023/04/20 05:34:46;;;;;;;4.82;3.58;;;;;;;6.77;100.00;91893.91;5008508;28;20075;-76
2023/04/20 05:37:12;;;;;;;5.60;4.03;;;;;;;6.68;100.00;91896.34;5008800;28;20575;-76
2023/04/20 05:39:37;;;;;;;5.78;3.90;;;;;;;6.84;100.00;91891.75;5007193;28;20546;-77
2023/04/20 05:42:03;;;;;;;5.18;3.72;;;;;;;6.71;100.00;91897.63;5009587;28;20034;-77
2023/04/20 05:44:28;;;;;;;5.80;3.65;;;;;;;6.72;100.00;91899.19;5007827;28;20407;-77
2023/04/20 05:46:54;;;;;;;4.63;3.65;;;;;;;6.72;100.00;91899.94;5008534;28;20030;-77
2023/04/20 05:49:20;;;;;;;5.72;3.58;;;;;;;6.71;100.00;91903.59;5008733;28;20410;-77
2023/04/20 05:51:45;;;;;;;3.92;2.70;;;;;;;6.61;100.00;91904.47;5008760;28;20077;-77
2023/04/20 05:54:11;;;;;;;5.05;3.08;;;;;;;6.63;100.00;91909.41;5008760;28;20033;-77
2023/04/20 05:56:37;;;;;;;5.00;3.53;;;;;;;6.64;100.00;91903.94;5009145;28;20092;-77
2023/04/20 05:59:03;;;;;;;2.97;2.10;;;;;;;6.69;100.00;91903.09;5008250;28;20022;-77
2023/04/20 06:01:29;;;;;;;3.92;2.75;;;;;;;6.56;100.00;91901.16;5011224;28;20522;-76
2023/04/20 06:03:54;;;;;;;4.70;3.42;;;;;;;6.51;100.00;91914.97;5004190;28;20044;-76
2023/04/20 06:06:20;;;;;;;3.90;2.80;;;;;;;6.64;100.00;91910.94;4996193;28;20049;-76
2023/04/20 06:08:46;;;;;;;4.38;2.97;;;;;;;6.68;100.00;91910.13;5010888;28;20403;-77
2023/04/20 06:11:11;;;;;;;5.95;4.15;;;;;;;6.51;100.00;91907.19;5009923;28;20042;-77
2023/04/20 06:13:37;;;;;;;4.95;3.65;;;;;;;6.59;100.00;91913.59;5008130;28;20048;-77
2023/04/20 06:16:02;;;;;;;4.68;2.83;;;;;;;6.67;100.00;91907.81;5006023;28;20040;-77
2023/04/20 06:18:28;;;;;;;5.07;3.80;;;;;;;6.59;100.00;91911.00;5004919;28;20422;-77
2023/04/20 06:20:54;;;;;;;5.28;3.60;;;;;;;6.64;100.00;91906.53;4987415;28;20523;-79
2023/04/20 06:23:19;;;;;;;5.82;4.35;;;;;;;6.55;100.00;91913.38;5012229;28;20029;-78
2023/04/20 06:25:45;;;;;;;5.20;3.70;;;;;;;6.64;100.00;91905.75;5012687;28;20037;-78
2023/04/20 06:28:10;;;;;;;5.15;3.92;;;;;;;6.60;100.00;91902.94;5012868;28;20036;-77
2023/04/20 06:30:36;;;;;;;4.93;3.05;;;;;;;6.47;100.00;91903.56;5014285;28;20547;-77
2023/04/20 06:33:02;;;;;;;5.97;4.38;;;;;;;6.51;100.00;91911.59;5013312;28;20034;-77
2023/04/20 06:35:28;;;;;;;5.88;4.00;;;;;;;6.57;100.00;91913.88;5005740;28;20042;-77
2023/04/20 06:37:56;;;;;;;7.10;5.40;;;;;;;6.51;100.00;91914.19;4992958;28;20069;-77
2023/04/20 06:40:25;;;;;;;6.15;4.05;;;;;;;6.54;100.00;91911.81;4993315;28;20090;-77
2023/04/20 06:42:50;;;;;;;7.45;5.65;;;;;;;6.57;100.00;91915.69;4993240;28;20103;-77
2023/04/20 06:45:17;;;;;;;9.23;6.43;;;;;;;6.60;100.00;91920.38;4993754;28;20129;-77
2023/04/20 06:47:42;;;;;;;5.90;4.90;;;;;;;6.60;100.00;91923.75;5004419;28;20507;-77
2023/04/20 06:50:08;;;;;;;9.25;6.45;;;;;;;6.65;100.00;91912.50;5012497;28;20084;-77
2023/04/20 06:52:38;;;;;;;6.55;3.92;;;;;;;6.73;100.00;91913.72;5012833;28;20038;-77
2023/04/20 06:55:05;;;;;;;5.50;4.18;;;;;;;6.57;100.00;91913.09;5012635;28;20089;-77
2023/04/20 06:57:30;;;;;;;3.78;2.95;;;;;;;6.59;100.00;91921.41;5012681;28;20193;-77
2023/04/20 06:59:57;;;;;;;7.30;5.47;;;;;;;6.55;100.00;91907.41;5012647;28;20123;-77
2023/04/20 07:02:23;;;;;;;7.00;5.32;;;;;;;6.56;100.00;91901.16;5013011;28;20042;-77
2023/04/20 07:04:49;;;;;;;5.05;3.92;;;;;;;6.63;100.00;91910.16;5028963;28;20064;-77
2023/04/20 07:07:15;;;;;;;5.95;4.50;;;;;;;6.70;100.00;91914.28;5012365;28;20034;-78
2023/04/20 07:09:41;;;;;;;6.93;5.03;;;;;;;6.81;100.00;91902.72;5028804;28;20038;-77
2023/04/20 07:12:07;;;;;;;5.40;3.92;;;;;;;6.93;100.00;91904.94;5013222;28;20224;-77
2023/04/20 07:14:32;;;;;;;4.38;2.95;;;;;;;6.99;100.00;91896.78;5012312;28;20030;-77
2023/04/20 07:16:58;;;;;;;5.13;2.83;;;;;;;6.96;100.00;91904.38;5012339;28;20038;-77
2023/04/20 07:19:23;;;;;;;5.00;3.50;;;;;;;6.90;100.00;91900.28;5002138;28;20042;-77
2023/04/20 07:21:49;;;;;;;5.43;4.03;;;;;;;7.01;100.00;91902.50;4993742;28;20029;-77
2023/04/20 07:24:14;;;;;;;5.32;3.78;;;;;;;7.02;100.00;91903.25;4976706;28;20126;-77
2023/04/20 07:26:40;;;;;;;5.15;3.88;;;;;;;7.10;100.00;91902.66;4992665;28;20133;-77
2023/04/20 07:29:05;;;;;;;5.53;3.95;;;;;;;7.02;100.00;91908.47;4994100;28;20117;-77
2023/04/20 07:31:31;;;;;;;5.45;4.03;;;;;;;6.95;100.00;91903.59;4993770;28;20550;-77
2023/04/20 07:33:57;;;;;;;5.82;4.00;;;;;;;7.06;100.00;91906.88;4992458;28;20441;-77
2023/04/20 07:36:22;;;;;;;6.18;3.80;;;;;;;6.99;100.00;91909.81;4994042;28;20030;-77
2023/04/20 07:38:48;;;;;;;5.55;4.00;;;;;;;7.00;100.00;91910.56;4993371;28;20405;-77
2023/04/20 07:41:14;;;;;;;5.55;4.00;;;;;;;7.03;100.00;91912.63;4992337;28;20046;-77
2023/04/20 07:43:40;;;;;;;4.85;3.38;;;;;;;6.94;100.00;91917.66;5007538;28;20029;-77
2023/04/20 07:46:06;;;;;;;5.13;3.40;;;;;;;7.02;100.00;91919.66;5011754;28;20037;-77
2023/04/20 07:48:35;;;;;;;5.97;4.25;;;;;;;7.16;100.00;91917.16;5011594;28;20030;-77
2023/04/20 07:51:01;;;;;;;7.07;5.07;;;;;;;7.06;100.00;91917.28;5011552;28;20030;-77
2023/04/20 07:53:30;;;;;;;6.00;3.88;;;;;;;7.06;100.00;91919.88;5000546;28;20053;-77
2023/04/20 07:55:55;;;;;;;5.95;4.32;;;;;;;7.02;100.00;91917.03;4991942;28;20042;-77
2023/04/20 07:58:21;;;;;;;6.10;4.22;;;;;;;7.15;100.00;91923.41;4993117;28;20029;-77
2023/04/20 08:00:47;;;;;;;5.65;4.40;;;;;;;7.12;100.00;91910.19;4991840;28;20065;-77
2023/04/20 08:03:15;;;;;;;5.15;3.63;;;;;;;7.18;100.00;91915.06;4993034;28;20400;-77
2023/04/20 08:05:41;;;;;;;6.50;4.40;;;;;;;7.01;100.00;91917.34;4993249;28;20495;-77
2023/04/20 08:08:07;;;;;;;4.85;3.10;;;;;;;7.05;100.00;91913.91;4991838;28;20035;-77
2023/04/20 08:10:32;;;;;;;6.63;4.45;;;;;;;6.94;100.00;91916.91;5004334;28;20033;-77
2023/04/20 08:12:58;;;;;;;6.03;4.47;;;;;;;6.93;100.00;91920.53;5012373;28;20432;-77
2023/04/20 08:15:23;;;;;;;4.45;3.10;;;;;;;6.93;100.00;91915.34;4994869;28;20498;-77
2023/04/20 08:17:49;;;;;;;6.30;3.92;;;;;;;6.83;100.00;91914.41;5012910;28;20037;-77
2023/04/20 08:20:15;;;;;;;5.88;4.60;;;;;;;6.87;100.00;91912.78;5012426;28;20440;-77
2023/04/20 08:22:40;;;;;;;5.53;3.92;;;;;;;6.76;100.00;91911.34;5012436;28;20057;-77
2023/04/20 08:25:06;;;;;;;5.68;4.03;;;;;;;6.86;100.00;91921.63;5011333;28;20030;-77
2023/04/20 08:27:32;;;;;;;6.47;4.38;;;;;;;6.84;100.00;91923.75;5011320;28;20678;-77
2023/04/20 08:29:57;;;;;;;5.20;3.90;;;;;;;6.95;100.00;91915.84;5011980;28;20136;-77
2023/04/20 08:32:25;;;;;;;5.30;3.42;;;;;;;6.99;100.00;91925.41;5012505;28;20472;-77
2023/04/20 08:34:54;;;;;;;6.22;4.10;;;;;;;6.98;100.00;91923.09;5027515;28;20068;-77
2023/04/20 08:37:20;;;;;;;4.07;2.70;;;;;;;7.03;100.00;91923.03;5011365;28;20037;-77
2023/04/20 08:39:45;;;;;;;4.28;2.80;;;;;;;7.08;100.00;91920.38;5019715;28;20110;-77
2023/04/20 08:42:12;;;;;;;5.20;3.67;;;;;;;7.04;100.00;91932.38;4992587;28;20060;-77
2023/04/20 08:44:38;;;;;;;4.72;3.47;;;;;;;7.00;100.00;91931.38;4993583;28;20494;-77
2023/04/20 08:47:03;;;;;;;5.78;4.03;;;;;;;6.91;100.00;91939.03;4990871;28;20034;-77
2023/04/20 08:49:30;;;;;;;4.82;4.00;;;;;;;6.89;100.00;91935.94;4998491;28;20164;-77
2023/04/20 08:51:55;;;;;;;6.30;4.00;;;;;;;6.93;100.00;91928.34;5011926;28;20061;-77
2023/04/20 08:54:21;;;;;;;5.28;3.50;;;;;;;6.94;100.00;91933.28;5010915;28;20482;-77
2023/04/20 08:56:47;;;;;;;4.65;2.88;;;;;;;7.01;100.00;91935.56;5011923;28;20026;-77
2023/04/20 08:59:15;;;;;;;4.60;3.38;;;;;;;6.97;100.00;91926.75;5011817;28;20514;-77
2023/04/20 09:01:43;;;;;;;4.30;2.80;;;;;;;6.91;100.00;91930.44;5011180;28;20168;-77
2023/04/20 09:04:14;;;;;;;4.55;3.03;;;;;;;6.87;100.00;91925.81;5010611;28;20034;-76
2023/04/20 09:06:43;;;;;;;5.15;3.45;;;;;;;6.87;100.00;91932.84;5004044;28;20030;-76
2023/04/20 09:09:10;;;;;;;4.55;3.08;;;;;;;6.83;100.00;91930.00;4993446;28;20030;-77
2023/04/20 09:11:35;;;;;;;4.93;3.30;;;;;;;6.81;100.00;91929.50;5011928;28;20029;-77
2023/04/20 09:14:08;;;;;;;5.40;3.60;;;;;;;6.81;100.00;91929.50;5010356;28;20046;-77
2023/04/20 09:16:35;;;;;;;5.60;3.35;;;;;;;6.83;100.00;91930.00;5010336;28;20036;-77
2023/04/20 09:19:00;;;;;;;4.28;3.10;;;;;;;7.01;100.00;91932.94;4995494;28;20046;-77
2023/04/20 09:21:27;;;;;;;3.67;2.70;;;;;;;6.95;100.00;91934.81;4991830;28;20026;-76
2023/04/20 09:24:00;;;;;;;4.93;3.25;;;;;;;6.93;100.00;91946.56;4974329;28;20053;-76
2023/04/20 09:26:26;;;;;;;4.35;3.25;;;;;;;6.92;100.00;91939.81;4990366;28;20038;-76
2023/04/20 09:28:52;;;;;;;4.10;2.85;;;;;;;6.83;100.00;91937.81;4991349;28;20404;-77
2023/04/20 09:31:22;;;;;;;3.75;2.83;;;;;;;6.87;100.00;91949.22;5006563;28;20034;-76
2023/04/20 09:33:57;;;;;;;4.20;2.92;;;;;;;6.88;100.00;91935.16;4991814;28;20046;-76
2023/04/20 09:36:24;;;;;;;5.20;3.70;;;;;;;6.94;100.00;91942.91;5008128;28;20038;-76
2023/04/20 09:39:05;;;;;;;2.20;1.63;;;;;;;6.95;100.00;91934.81;5013109;28;20180;-77
2023/04/20 09:41:31;;;;;;;3.85;1.95;;;;;;;7.06;100.00;91936.25;5015170;28;20033;-77
2023/04/20 09:43:57;;;;;;;3.05;2.05;;;;;;;6.90;100.00;91927.06;5015372;28;20472;-77
2023/04/20 09:46:25;;;;;;;4.97;2.65;;;;;;;7.02;100.00;91929.28;5015212;28;20036;-77
2023/04/20 09:48:50;;;;;;;5.63;2.08;;;;;;;7.04;100.00;91937.59;5015085;28;20041;-77
2023/04/20 09:51:16;;;;;;;4.25;2.90;;;;;;;7.09;100.00;91930.53;5013085;28;20046;-77
2023/04/20 09:53:42;;;;;;;2.88;2.00;;;;;;;7.09;100.00;91929.72;4995120;28;20029;-77
2023/04/20 09:56:08;;;;;;;6.53;2.83;;;;;;;7.14;100.00;91921.06;4995368;28;20046;-77
2023/04/20 09:58:35;;;;;;;11.95;2.45;;;;;;;7.19;100.00;91921.81;4995192;28;20057;-77
2023/04/20 10:01:01;;;;;;;3.15;2.25;;;;;;;7.25;100.00;91928.50;4995165;28;20091;-76
2023/04/20 10:03:27;;;;;;;3.83;2.58;;;;;;;7.23;100.00;91924.63;4995240;28;20121;-77
2023/04/20 10:05:54;;;;;;;4.13;2.63;;;;;;;7.24;100.00;91911.31;5010467;28;20045;-76
2023/04/20 10:08:20;;;;;;;3.90;2.25;;;;;;;7.39;100.00;91928.59;5006723;28;20644;-77
2023/04/20 10:10:49;;;;;;;3.90;2.65;;;;;;;7.30;100.00;91920.63;5014428;28;20056;-77
2023/04/20 10:13:15;;;;;;;5.07;3.28;;;;;;;7.14;100.00;91921.88;5013398;28;20044;-77
2023/04/20 10:15:41;;;;;;;4.13;3.03;;;;;;;7.23;100.00;91929.84;5013486;28;20046;-76
2023/04/20 10:18:18;;;;;;;4.50;2.78;;;;;;;7.28;100.00;91925.34;5013246;28;20074;-76
2023/04/20 10:20:45;;;;;;;4.47;3.00;;;;;;;7.24;100.00;91921.75;5014310;28;20040;-77
2023/04/20 10:23:13;;;;;;;3.80;2.75;;;;;;;7.16;100.00;91926.78;5013333;28;20472;-76
2023/04/20 10:25:39;;;;;;;3.28;2.30;;;;;;;7.01;100.00;91917.34;5013796;28;20041;-76
2023/04/20 10:28:08;;;;;;;4.18;2.85;;;;;;;7.07;100.00;91922.22;5013135;28;20419;-76
2023/04/20 10:30:34;;;;;;;2.90;2.10;;;;;;;6.90;100.00;91921.09;5012938;28;20048;-77
2023/04/20 10:33:04;;;;;;;4.65;3.30;;;;;;;6.85;100.00;91920.09;5014086;28;20389;-76
2023/04/20 10:35:43;;;;;;;3.60;2.45;;;;;;;6.91;100.00;91928.63;5029540;28;20517;-77
2023/04/20 10:38:10;;;;;;;3.85;2.47;;;;;;;6.86;100.00;91919.03;5012229;28;20034;-77
2023/04/20 10:40:36;;;;;;;4.30;2.47;;;;;;;6.81;100.00;91926.91;5013211;28;20038;-76
2023/04/20 10:43:01;;;;;;;5.03;2.63;;;;;;;6.81;100.00;91908.69;5014348;28;20092;-76
2023/04/20 10:45:37;;;;;;;3.38;2.00;;;;;;;6.86;100.00;91924.25;5012691;28;20046;-76
2023/04/20 10:48:09;;;;;;;2.13;1.52;;;;;;;6.97;100.00;91916.34;5012833;28;20113;-76
2023/04/20 10:50:35;;;;;;;2.80;1.90;;;;;;;7.09;100.00;91912.31;5009097;28;20041;-76
2023/04/20 10:53:02;;;;;;;2.63;1.65;;;;;;;7.17;100.00;91915.34;5001872;28;20092;-76
2023/04/20 10:55:27;;;;;;;3.65;2.15;;;;;;;7.09;100.00;91907.09;4976919;28;20377;-77
2023/04/20 10:57:53;;;;;;;4.03;2.70;;;;;;;7.18;100.00;91911.66;4995705;28;20097;-79
2023/04/20 11:00:21;;;;;;;2.60;1.67;;;;;;;7.31;100.00;91903.19;4998658;28;20057;-76
2023/04/20 11:02:51;;;;;;;2.03;1.02;;;;;;;7.17;100.00;91905.69;5012682;28;20458;-76
2023/04/20 11:05:18;;;;;;;3.05;1.98;;;;;;;7.22;100.00;91897.81;5011671;28;20071;-77
2023/04/20 11:07:54;;;;;;;2.42;1.58;;;;;;;7.32;100.00;91901.34;5001354;28;20022;-76
2023/04/20 11:10:21;;;;;;;2.35;1.52;;;;;;;7.39;100.00;91902.56;5009869;28;20037;-76
2023/04/20 11:12:47;;;;;;;2.50;1.55;;;;;;;7.20;100.00;91894.72;5012449;28;20092;-76
2023/04/20 11:15:12;;;;;;;2.80;1.60;;;;;;;7.16;100.00;91901.56;5013398;28;20439;-76
2023/04/20 11:17:39;;;;;;;2.65;1.70;;;;;;;7.11;100.00;91899.00;5012190;28;20030;-76
2023/04/20 11:20:13;;;;;;;2.20;0.85;;;;;;;7.15;100.00;91892.19;5011755;28;20030;-76
2023/04/20 11:22:40;;;;;;;4.15;1.05;;;;;;;6.96;100.00;91899.16;5010948;28;20034;-77
2023/04/20 11:25:08;;;;;;;2.28;1.17;;;;;;;6.91;100.00;91894.03;5011237;28;20071;-76
2023/04/20 11:27:34;;;;;;;2.28;1.25;;;;;;;6.97;100.00;91895.53;5012276;28;20480;-77
2023/04/20 11:30:04;;;;;;;1.95;1.50;;;;;;;6.84;100.00;91891.75;4994019;28;20045;-77